createdAt,value
2018-03-16T00:00:47.660Z,14.10
2018-03-16T00:03:15.233Z,13.70
2018-03-16T00:05:42.792Z,15.03
2018-03-16T00:08:10.352Z,14.50
2018-03-16T00:10:37.969Z,14.90
2018-03-16T00:13:05.580Z,14.43
2018-03-16T00:15:33.235Z,13.90
2018-03-16T00:18:00.862Z,14.73
2018-03-16T00:20:28.556Z,15.23
2018-03-16T00:22:56.158Z,15.10
2018-03-16T00:25:23.722Z,15.33
2018-03-16T00:27:51.328Z,14.57
2018-03-16T00:30:18.888Z,14.93
2018-03-16T00:32:46.453Z,15.60
2018-03-16T00:35:14.025Z,15.90
2018-03-16T00:37:41.584Z,15.97
2018-03-16T00:40:09.164Z,14.87
2018-03-16T00:42:37.120Z,15.87
2018-03-16T00:45:04.716Z,16.57
2018-03-16T00:47:32.271Z,16.60
2018-03-16T00:49:59.876Z,15.10
2018-03-16T00:52:27.531Z,16.83
2018-03-16T00:54:55.200Z,15.10
2018-03-16T00:57:22.772Z,15.80
2018-03-16T00:59:50.728Z,16.20
2018-03-16T01:02:18.397Z,16.87
2018-03-16T01:04:45.956Z,16.37
2018-03-16T01:07:13.638Z,15.33
2018-03-16T01:09:41.293Z,15.67
2018-03-16T01:12:09.288Z,15.90
2018-03-16T01:14:36.918Z,17.70
2018-03-16T01:17:04.568Z,15.43
2018-03-16T01:19:32.140Z,16.40
2018-03-16T01:22:00.097Z,16.87
2018-03-16T01:24:27.681Z,17.40
2018-03-16T01:26:55.236Z,15.70
2018-03-16T01:29:22.798Z,16.70
2018-03-16T01:31:50.392Z,15.43
2018-03-16T01:34:17.957Z,16.97
2018-03-16T01:36:45.543Z,15.97
2018-03-16T01:39:13.232Z,17.17
2018-03-16T01:41:40.790Z,16.67
2018-03-16T01:44:08.344Z,16.67
2018-03-16T01:46:35.935Z,16.43
2018-03-16T01:49:03.502Z,15.53
2018-03-16T01:51:31.062Z,16.70
2018-03-16T01:53:58.620Z,16.33
2018-03-16T01:56:26.178Z,16.03
2018-03-16T01:58:53.732Z,16.03
2018-03-16T02:01:21.282Z,16.00
2018-03-16T02:03:48.933Z,16.27
2018-03-16T02:06:16.495Z,17.13
2018-03-16T02:08:44.063Z,16.90
2018-03-16T02:11:11.684Z,15.60
2018-03-16T02:13:39.372Z,16.40
2018-03-16T02:16:06.957Z,17.10
2018-03-16T02:18:34.517Z,15.43
2018-03-16T02:21:02.073Z,15.60
2018-03-16T02:23:29.707Z,16.13
2018-03-16T02:25:57.400Z,17.87
2018-03-16T02:28:24.954Z,16.17
2018-03-16T02:30:52.599Z,17.33
2018-03-16T02:33:20.242Z,16.90
2018-03-16T02:35:47.900Z,16.80
2018-03-16T02:38:15.425Z,16.50
2018-03-16T02:40:44.749Z,17.03
2018-03-16T02:43:12.446Z,17.77
2018-03-16T02:45:40.096Z,16.60
2018-03-16T02:48:07.784Z,17.80
2018-03-16T02:50:35.345Z,18.20
2018-03-16T02:53:02.913Z,17.80
2018-03-16T02:55:30.538Z,17.03
2018-03-16T02:57:58.120Z,16.73
2018-03-16T03:00:39.960Z,18.37
2018-03-16T03:03:07.936Z,16.40
2018-03-16T03:05:35.533Z,16.73
2018-03-16T03:08:03.111Z,17.53
2018-03-16T03:10:30.760Z,18.33
2018-03-16T03:12:58.404Z,16.33
2018-03-16T03:15:26.064Z,17.33
2018-03-16T03:17:53.625Z,17.07
2018-03-16T03:20:21.184Z,17.57
2018-03-16T03:22:48.840Z,16.77
2018-03-16T03:25:16.401Z,16.73
2018-03-16T03:27:44.158Z,16.93
2018-03-16T03:30:11.834Z,16.83
2018-03-16T03:32:39.412Z,18.47
2018-03-16T03:35:07.024Z,18.30
2018-03-16T03:37:34.599Z,16.80
2018-03-16T03:40:02.192Z,16.33
2018-03-16T03:42:29.751Z,17.80
2018-03-16T03:44:57.408Z,15.93
2018-03-16T03:47:25.068Z,15.97
2018-03-16T03:49:52.636Z,16.50
2018-03-16T03:52:20.272Z,15.70
2018-03-16T03:54:47.933Z,16.37
2018-03-16T03:57:15.488Z,16.30
2018-03-16T03:59:43.053Z,16.53
2018-03-16T04:02:10.612Z,16.00
2018-03-16T04:04:38.168Z,16.50
2018-03-16T04:07:05.750Z,17.27
2018-03-16T04:09:33.309Z,18.10
2018-03-16T04:12:00.864Z,16.47
2018-03-16T04:14:28.434Z,17.00
2018-03-16T04:16:56.144Z,16.77
2018-03-16T04:19:23.712Z,16.63
2018-03-16T04:21:51.313Z,16.63
2018-03-16T04:24:18.877Z,16.73
2018-03-16T04:26:46.480Z,16.67
2018-03-16T04:29:14.081Z,16.60
2018-03-16T04:31:41.700Z,15.10
2018-03-16T04:34:09.308Z,15.57
2018-03-16T04:36:36.882Z,15.57
2018-03-16T04:39:04.858Z,15.50
2018-03-16T04:41:32.444Z,16.50
2018-03-16T04:44:00.089Z,16.23
2018-03-16T04:46:27.716Z,17.23
2018-03-16T04:48:55.377Z,16.90
2018-03-16T04:51:23.040Z,17.83
2018-03-16T04:53:51.136Z,15.67
2018-03-16T04:56:18.772Z,17.57
2018-03-16T04:58:46.352Z,17.20
2018-03-16T05:01:13.911Z,17.20
2018-03-16T05:03:41.487Z,16.27
2018-03-16T05:06:09.113Z,16.93
2018-03-16T05:08:36.699Z,17.70
2018-03-16T05:11:04.274Z,16.20
2018-03-16T05:13:31.834Z,16.90
2018-03-16T05:15:59.397Z,16.57
2018-03-16T05:18:26.956Z,17.67
2018-03-16T05:20:54.602Z,16.67
2018-03-16T05:23:22.236Z,17.57
2018-03-16T05:25:50.314Z,16.67
2018-03-16T05:28:17.976Z,17.43
2018-03-16T05:30:45.562Z,17.13
2018-03-16T05:33:13.198Z,18.07
2018-03-16T05:35:40.781Z,18.13
2018-03-16T05:38:08.412Z,16.37
2018-03-16T05:40:36.510Z,16.33
2018-03-16T05:43:04.069Z,16.90
2018-03-16T05:45:31.636Z,16.37
2018-03-16T05:47:59.195Z,17.57
2018-03-16T05:50:26.796Z,16.10
2018-03-16T05:52:54.358Z,16.53
2018-03-16T05:55:22.361Z,17.30
2018-03-16T05:57:49.921Z,17.13
2018-03-16T06:00:17.499Z,16.90
2018-03-16T06:02:45.128Z,17.40
2018-03-16T06:05:12.687Z,16.27
2018-03-16T06:07:40.365Z,16.80
2018-03-16T06:10:07.948Z,16.63
2018-03-16T06:12:35.532Z,17.07
2018-03-16T06:15:03.147Z,18.03
2018-03-16T06:17:30.820Z,16.10
2018-03-16T06:19:58.373Z,17.23
2018-03-16T06:22:25.944Z,16.57
2018-03-16T06:24:53.522Z,16.33
2018-03-16T06:27:21.152Z,16.97
2018-03-16T06:29:48.810Z,16.57
2018-03-16T06:32:27.610Z,16.37
2018-03-16T06:34:55.160Z,16.40
2018-03-16T06:37:22.745Z,18.10
2018-03-16T06:39:50.416Z,15.73
2018-03-16T06:42:18.126Z,15.83
2018-03-16T06:44:46.151Z,16.80
2018-03-16T06:47:14.122Z,18.10
2018-03-16T06:49:44.612Z,17.53
2018-03-16T06:52:12.225Z,16.90
2018-03-16T06:54:39.783Z,17.13
2018-03-16T06:57:07.337Z,16.27
2018-03-16T06:59:34.897Z,16.77
2018-03-16T07:02:02.462Z,17.30
2018-03-16T07:04:30.028Z,16.30
2018-03-16T07:06:57.652Z,15.87
2018-03-16T07:09:25.368Z,15.93
2018-03-16T07:11:53.399Z,16.10
2018-03-16T07:14:20.985Z,16.40
2018-03-16T07:16:48.946Z,15.87
2018-03-16T07:19:16.532Z,15.80
2018-03-16T07:21:44.091Z,16.37
2018-03-16T07:24:12.061Z,16.50
2018-03-16T07:26:39.620Z,15.73
2018-03-16T07:29:07.210Z,15.00
2018-03-16T07:31:34.895Z,15.40
2018-03-16T07:34:02.473Z,14.90
2018-03-16T07:36:30.165Z,16.20
2018-03-16T07:38:57.796Z,14.97
2018-03-16T07:41:25.445Z,15.77
2018-03-16T07:43:53.043Z,13.43
2018-03-16T07:46:20.673Z,14.17
2018-03-16T07:48:48.328Z,14.80
2018-03-16T07:51:15.984Z,13.40
2018-03-16T07:53:43.646Z,14.37
2018-03-16T07:56:11.229Z,15.10
2018-03-16T07:58:38.868Z,13.20
2018-03-16T08:01:06.481Z,14.30
2018-03-16T08:03:34.090Z,13.57
2018-03-16T08:06:01.791Z,13.20
2018-03-16T08:08:29.420Z,13.90
2018-03-16T08:10:57.101Z,13.77
2018-03-16T08:13:25.148Z,13.33
2018-03-16T08:15:56.870Z,13.17
2018-03-16T08:18:24.428Z,12.80
2018-03-16T08:20:51.988Z,12.73
2018-03-16T08:23:19.553Z,12.03
2018-03-16T08:25:47.112Z,12.47
2018-03-16T08:28:14.675Z,13.60
2018-03-16T08:30:42.257Z,12.97
2018-03-16T08:33:09.828Z,12.97
2018-03-16T08:35:37.401Z,12.10
2018-03-16T08:38:04.982Z,12.17
2018-03-16T08:40:32.551Z,12.57
2018-03-16T08:43:00.111Z,11.63
2018-03-16T08:45:27.735Z,12.17
2018-03-16T08:47:55.294Z,12.47
2018-03-16T08:50:22.911Z,12.03
2018-03-16T08:52:50.480Z,12.70
2018-03-16T08:55:18.036Z,11.83
2018-03-16T08:57:45.594Z,12.53
2018-03-16T09:00:13.207Z,12.77
2018-03-16T09:02:40.844Z,13.10
2018-03-16T09:05:08.819Z,13.27
2018-03-16T09:07:36.477Z,11.67
2018-03-16T09:10:04.137Z,12.10
2018-03-16T09:12:31.726Z,12.37
2018-03-16T09:14:59.421Z,12.10
2018-03-16T09:17:26.969Z,11.57
2018-03-16T09:19:54.544Z,11.80
2018-03-16T09:22:22.140Z,11.90
2018-03-16T09:24:49.721Z,10.97
2018-03-16T09:27:17.368Z,11.60
2018-03-16T09:29:44.945Z,11.50
2018-03-16T09:32:12.512Z,11.23
2018-03-16T09:34:40.072Z,11.30
2018-03-16T09:37:07.631Z,10.67
2018-03-16T09:39:35.192Z,10.90
2018-03-16T09:42:02.764Z,11.60
2018-03-16T09:44:33.058Z,12.10
2018-03-16T09:47:00.622Z,11.33
2018-03-16T09:49:28.337Z,11.30
2018-03-16T09:51:55.911Z,11.30
2018-03-16T09:54:23.512Z,10.73
2018-03-16T09:56:51.142Z,10.43
2018-03-16T09:59:18.710Z,11.27
2018-03-16T10:01:46.383Z,11.30
2018-03-16T10:04:13.949Z,10.70
2018-03-16T10:06:41.501Z,11.77
2018-03-16T10:09:09.068Z,10.73
2018-03-16T10:11:36.717Z,10.30
2018-03-16T10:14:04.290Z,11.47
2018-03-16T10:16:31.953Z,10.37
2018-03-16T10:18:59.600Z,10.93
2018-03-16T10:21:27.173Z,10.40
2018-03-16T10:23:54.732Z,11.80
2018-03-16T10:26:22.292Z,10.40
2018-03-16T10:28:49.947Z,11.47
2018-03-16T10:31:17.596Z,10.70
2018-03-16T10:33:45.260Z,10.83
2018-03-16T10:36:12.824Z,10.87
2018-03-16T10:38:40.499Z,10.10
2018-03-16T10:41:08.053Z,11.03
2018-03-16T10:43:35.616Z,10.50
2018-03-16T10:46:03.270Z,11.07
2018-03-16T10:48:30.993Z,10.43
2018-03-16T10:50:58.552Z,10.93
2018-03-16T10:53:26.178Z,10.63
2018-03-16T10:55:53.826Z,10.80
2018-03-16T10:58:21.379Z,10.90
2018-03-16T11:00:58.782Z,11.50
2018-03-16T11:03:41.239Z,10.83
2018-03-16T11:06:08.833Z,10.53
2018-03-16T11:08:36.471Z,9.97
2018-03-16T11:11:04.049Z,11.03
2018-03-16T11:13:31.711Z,10.40
2018-03-16T11:15:59.385Z,10.10
2018-03-16T11:18:27.028Z,10.50
2018-03-16T11:20:54.602Z,10.43
2018-03-16T11:23:22.269Z,10.60
2018-03-16T11:25:49.829Z,10.40
2018-03-16T11:28:17.389Z,11.00
2018-03-16T11:30:45.044Z,10.23
2018-03-16T11:33:12.604Z,10.23
2018-03-16T11:35:40.190Z,11.07
2018-03-16T11:38:08.234Z,11.20
2018-03-16T11:40:35.813Z,11.00
2018-03-16T11:43:03.812Z,10.20
2018-03-16T11:45:32.769Z,10.67
2018-03-16T11:48:00.335Z,10.40
2018-03-16T11:50:28.345Z,11.07
2018-03-16T11:52:55.904Z,10.63
2018-03-16T11:55:23.473Z,10.73
2018-03-16T11:57:51.036Z,10.90
2018-03-16T12:00:18.724Z,11.53
2018-03-16T12:02:46.288Z,11.10
2018-03-16T12:05:14.313Z,10.60
2018-03-16T12:07:41.924Z,11.53
2018-03-16T12:10:09.881Z,10.63
2018-03-16T12:12:37.863Z,11.13
2018-03-16T12:15:05.574Z,10.20
2018-03-16T12:17:33.148Z,10.90
2018-03-16T12:20:00.708Z,9.93
2018-03-16T12:22:28.293Z,10.60
2018-03-16T12:24:55.872Z,10.87
2018-03-16T12:27:23.470Z,10.03
2018-03-16T12:29:51.082Z,9.90
2018-03-16T12:32:18.743Z,11.13
2018-03-16T12:34:46.306Z,11.07
2018-03-16T12:37:13.964Z,10.20
2018-03-16T12:39:41.545Z,9.50
2018-03-16T12:42:09.205Z,9.60
2018-03-16T12:44:36.841Z,10.17
2018-03-16T12:47:04.401Z,9.20
2018-03-16T12:49:32.127Z,10.17
2018-03-16T12:51:59.757Z,10.83
2018-03-16T12:54:27.413Z,10.30
2018-03-16T12:56:55.100Z,10.90
2018-03-16T12:59:22.668Z,8.90
2018-03-16T13:01:50.225Z,9.93
2018-03-16T13:04:17.896Z,9.77
2018-03-16T13:06:45.500Z,8.90
2018-03-16T13:09:13.052Z,10.43
2018-03-16T13:11:40.613Z,9.60
2018-03-16T13:14:08.178Z,9.83
2018-03-16T13:16:35.732Z,9.63
2018-03-16T13:19:03.348Z,9.83
2018-03-16T13:21:30.961Z,8.40
2018-03-16T13:23:58.585Z,8.90
2018-03-16T13:26:26.167Z,9.03
2018-03-16T13:28:53.830Z,8.30
2018-03-16T13:31:21.500Z,7.87
2018-03-16T13:33:50.186Z,8.60
2018-03-16T13:36:17.757Z,9.50
2018-03-16T13:38:56.582Z,8.97
2018-03-16T13:41:24.152Z,8.37
2018-03-16T13:43:51.705Z,7.60
2018-03-16T13:46:19.288Z,8.70
2018-03-16T13:48:46.844Z,8.53
2018-03-16T13:51:15.257Z,8.43
2018-03-16T13:53:42.846Z,7.70
2018-03-16T13:56:10.470Z,7.77
2018-03-16T13:58:38.478Z,7.80
2018-03-16T14:01:06.049Z,7.90
2018-03-16T14:03:33.648Z,7.17
2018-03-16T14:06:01.215Z,7.73
2018-03-16T14:08:29.228Z,7.70
2018-03-16T14:10:56.787Z,7.30
2018-03-16T14:13:24.456Z,7.63
2018-03-16T14:15:57.104Z,6.63
2018-03-16T14:18:24.707Z,7.00
2018-03-16T14:20:52.358Z,7.03
2018-03-16T14:23:20.025Z,7.43
2018-03-16T14:25:47.606Z,6.23
2018-03-16T14:28:15.638Z,6.50
2018-03-16T14:30:43.193Z,6.70
2018-03-16T14:33:10.815Z,6.87
2018-03-16T14:35:38.463Z,6.80
2018-03-16T14:38:06.521Z,6.20
2018-03-16T14:40:34.339Z,6.50
2018-03-16T14:43:02.045Z,7.27
2018-03-16T14:45:29.647Z,7.00
2018-03-16T14:47:57.207Z,6.70
2018-03-16T14:50:24.770Z,6.70
2018-03-16T14:52:52.372Z,6.07
2018-03-16T14:55:19.945Z,6.50
2018-03-16T14:57:47.997Z,6.33
2018-03-16T15:00:15.568Z,6.57
2018-03-16T15:02:43.160Z,6.30
2018-03-16T15:05:10.811Z,6.97
2018-03-16T15:07:38.793Z,6.33
2018-03-16T15:10:06.513Z,6.73
2018-03-16T15:12:34.072Z,6.50
2018-03-16T15:15:01.658Z,6.80
2018-03-16T15:17:29.695Z,7.00
2018-03-16T15:19:57.325Z,6.73
2018-03-16T15:22:25.033Z,7.00
2018-03-16T15:24:53.111Z,6.87
2018-03-16T15:27:21.135Z,6.70
2018-03-16T15:29:48.700Z,6.90
2018-03-16T15:32:16.233Z,7.80
2018-03-16T15:34:43.855Z,6.67
2018-03-16T15:37:11.358Z,7.23
2018-03-16T15:39:38.871Z,6.40
2018-03-16T15:42:06.819Z,7.30
2018-03-16T15:44:34.446Z,6.63
2018-03-16T15:47:02.623Z,6.50
2018-03-16T15:49:30.140Z,7.33
2018-03-16T15:51:57.759Z,7.53
2018-03-16T15:54:25.267Z,6.97
2018-03-16T15:56:53.967Z,7.87
2018-03-16T15:59:21.538Z,6.47
2018-03-16T16:01:49.059Z,8.10
2018-03-16T16:04:16.791Z,7.87
2018-03-16T16:06:44.336Z,8.20
2018-03-16T16:09:11.838Z,8.33
2018-03-16T16:11:39.751Z,7.70
2018-03-16T16:14:07.305Z,7.97
2018-03-16T16:16:34.820Z,8.20
2018-03-16T16:19:02.383Z,7.87
2018-03-16T16:21:29.903Z,8.77
2018-03-16T16:23:57.421Z,8.10
2018-03-16T16:26:25.019Z,8.13
2018-03-16T16:28:52.523Z,9.27
2018-03-16T16:31:20.054Z,9.20
2018-03-16T16:33:47.574Z,8.10
2018-03-16T16:36:15.151Z,9.33
2018-03-16T16:38:42.715Z,9.13
2018-03-16T16:41:10.224Z,9.00
2018-03-16T16:43:37.844Z,8.83
2018-03-16T16:46:05.751Z,9.40
2018-03-16T16:48:38.996Z,8.50
2018-03-16T16:51:06.515Z,8.30
2018-03-16T16:53:34.043Z,8.53
2018-03-16T16:56:01.680Z,8.57
2018-03-16T16:58:29.597Z,8.93
2018-03-16T17:00:57.210Z,9.17
2018-03-16T17:03:25.140Z,8.37
2018-03-16T17:05:53.013Z,8.23
2018-03-16T17:08:20.546Z,9.10
2018-03-16T17:10:48.080Z,8.73
2018-03-16T17:13:15.605Z,8.87
2018-03-16T17:15:43.161Z,8.77
2018-03-16T17:18:11.099Z,9.43
2018-03-16T17:20:38.707Z,9.33
2018-03-16T17:23:06.614Z,9.73
2018-03-16T17:25:34.143Z,9.07
2018-03-16T17:28:01.671Z,9.30
2018-03-16T17:30:29.182Z,9.10
2018-03-16T17:32:56.692Z,9.33
2018-03-16T17:35:24.259Z,9.30
2018-03-16T17:37:51.773Z,9.40
2018-03-16T17:40:19.283Z,8.43
2018-03-16T17:42:46.935Z,8.40
2018-03-16T17:45:14.494Z,8.30
2018-03-16T17:47:42.403Z,9.47
2018-03-16T17:50:09.920Z,8.73
2018-03-16T17:52:37.847Z,8.13
2018-03-16T17:55:05.359Z,8.73
2018-03-16T17:57:32.869Z,8.50
2018-03-16T18:00:03.037Z,8.90
2018-03-16T18:02:30.562Z,8.67
2018-03-16T18:04:58.471Z,8.27
2018-03-16T18:07:25.970Z,8.60
2018-03-16T18:09:53.498Z,8.03
2018-03-16T18:12:21.144Z,7.87
2018-03-16T18:14:48.686Z,8.73
2018-03-16T18:17:16.239Z,9.07
2018-03-16T18:19:43.798Z,8.70
2018-03-16T18:22:11.307Z,8.63
2018-03-16T18:24:38.834Z,8.60
2018-03-16T18:27:06.343Z,8.90
2018-03-16T18:29:33.884Z,9.60
2018-03-16T18:32:01.404Z,8.70
2018-03-16T18:34:28.907Z,7.67
2018-03-16T18:36:56.460Z,7.93
2018-03-16T18:39:23.977Z,8.83
2018-03-16T18:41:51.487Z,9.20
2018-03-16T18:44:19.007Z,8.23
2018-03-16T18:46:46.570Z,8.13
2018-03-16T18:49:14.085Z,8.23
2018-03-16T18:51:42.098Z,8.53
2018-03-16T18:54:09.667Z,8.80
2018-03-16T18:56:37.166Z,8.10
2018-03-16T18:59:04.670Z,8.10
2018-03-16T19:01:32.183Z,8.20
2018-03-16T19:04:02.967Z,8.23
2018-03-16T19:06:30.597Z,8.67
2018-03-16T19:08:58.164Z,8.40
2018-03-16T19:11:25.730Z,8.13
2018-03-16T19:13:53.251Z,7.60
2018-03-16T19:16:20.760Z,7.80
2018-03-16T19:18:48.314Z,8.00
2018-03-16T19:21:15.827Z,7.73
2018-03-16T19:23:43.447Z,8.40
2018-03-16T19:26:11.098Z,8.50
2018-03-16T19:28:38.602Z,8.30
2018-03-16T19:31:06.207Z,7.97
2018-03-16T19:33:33.823Z,7.80
2018-03-16T19:36:01.435Z,8.00
2018-03-16T19:38:28.944Z,7.57
2018-03-16T19:40:56.448Z,8.37
2018-03-16T19:43:24.021Z,7.80
2018-03-16T19:45:51.560Z,7.67
2018-03-16T19:48:19.066Z,7.90
2018-03-16T19:50:46.575Z,7.37
2018-03-16T19:53:14.082Z,7.27
2018-03-16T19:55:41.601Z,7.97
2018-03-16T19:58:09.165Z,7.10
2018-03-16T20:00:36.739Z,6.63
2018-03-16T20:03:04.270Z,7.30
2018-03-16T20:05:31.806Z,7.60
2018-03-16T20:07:59.326Z,7.60
2018-03-16T20:10:26.967Z,7.80
2018-03-16T20:12:54.522Z,7.43
2018-03-16T20:15:22.201Z,8.37
2018-03-16T20:17:50.265Z,7.40
2018-03-16T20:20:17.819Z,7.30
2018-03-16T20:22:45.338Z,6.70
2018-03-16T20:25:12.855Z,7.30
2018-03-16T20:27:40.757Z,7.17
2018-03-16T20:30:08.284Z,7.23
2018-03-16T20:32:35.814Z,7.10
2018-03-16T20:35:08.975Z,7.30
2018-03-16T20:37:36.502Z,8.27
2018-03-16T20:40:04.055Z,6.50
2018-03-16T20:42:31.765Z,6.73
2018-03-16T20:44:59.267Z,7.30
2018-03-16T20:47:27.208Z,7.40
2018-03-16T20:49:54.722Z,7.37
2018-03-16T20:52:22.236Z,6.97
2018-03-16T20:54:49.802Z,7.23
2018-03-16T20:57:17.770Z,7.30
2018-03-16T20:59:45.419Z,7.43
2018-03-16T21:02:13.399Z,6.23
2018-03-16T21:04:40.911Z,7.53
2018-03-16T21:07:08.547Z,7.90
2018-03-16T21:09:36.186Z,7.60
2018-03-16T21:12:03.727Z,6.60
2018-03-16T21:14:31.408Z,7.57
2018-03-16T21:16:59.093Z,7.37
2018-03-16T21:19:26.754Z,7.10
2018-03-16T21:21:54.265Z,7.00
2018-03-16T21:24:21.823Z,6.93
2018-03-16T21:26:49.737Z,6.80
2018-03-16T21:29:17.276Z,7.40
2018-03-16T21:31:44.931Z,7.00
2018-03-16T21:34:15.264Z,6.43
2018-03-16T21:36:42.763Z,6.50
2018-03-16T21:39:10.365Z,6.73
2018-03-16T21:41:37.946Z,6.87
2018-03-16T21:44:05.460Z,7.17
2018-03-16T21:46:32.974Z,7.37
2018-03-16T21:49:00.490Z,7.90
2018-03-16T21:51:28.639Z,6.80
2018-03-16T21:53:56.223Z,7.13
2018-03-16T21:56:24.194Z,6.80
2018-03-16T21:58:51.761Z,7.37
2018-03-16T22:01:19.330Z,7.40
2018-03-16T22:03:46.852Z,6.50
2018-03-16T22:06:14.998Z,7.47
2018-03-16T22:08:42.407Z,7.10
2018-03-16T22:11:09.988Z,6.63
2018-03-16T22:13:37.504Z,7.30
2018-03-16T22:16:05.429Z,6.27
2018-03-16T22:18:32.944Z,7.07
2018-03-16T22:21:00.459Z,6.47
2018-03-16T22:23:27.977Z,6.80
2018-03-16T22:25:55.538Z,6.53
2018-03-16T22:28:23.096Z,7.00
2018-03-16T22:30:50.640Z,6.37
2018-03-16T22:33:18.206Z,6.57
2018-03-16T22:35:45.714Z,6.60
2018-03-16T22:38:13.229Z,6.03
2018-03-16T22:40:40.730Z,6.67
2018-03-16T22:43:08.240Z,6.37
2018-03-16T22:45:44.819Z,6.20
2018-03-16T22:48:12.361Z,6.27
2018-03-16T22:50:39.871Z,5.90
2018-03-16T22:53:07.394Z,6.13
2018-03-16T22:55:34.913Z,5.93
2018-03-16T22:58:02.434Z,6.50
2018-03-16T23:00:29.962Z,6.93
2018-03-16T23:02:57.538Z,6.33
2018-03-16T23:05:25.047Z,5.50
2018-03-16T23:07:52.566Z,6.40
2018-03-16T23:10:20.202Z,6.30
2018-03-16T23:12:51.312Z,6.70
2018-03-16T23:15:18.823Z,5.93
2018-03-16T23:17:46.370Z,5.93
2018-03-16T23:20:13.919Z,6.17
2018-03-16T23:22:41.427Z,5.50
2018-03-16T23:25:09.442Z,5.73
2018-03-16T23:27:37.001Z,6.23
2018-03-16T23:30:04.595Z,6.67
2018-03-16T23:32:32.097Z,5.90
2018-03-16T23:34:59.622Z,5.63
2018-03-16T23:37:27.163Z,5.50
2018-03-16T23:39:54.689Z,6.13
2018-03-16T23:42:22.263Z,5.63
2018-03-16T23:44:49.799Z,6.40
2018-03-16T23:47:17.330Z,5.90
2018-03-16T23:49:44.954Z,5.23
2018-03-16T23:52:12.510Z,5.50
2018-03-16T23:54:40.075Z,5.30
2018-03-16T23:57:07.636Z,5.37
2018-03-16T23:59:35.156Z,5.60
